sensor_id;sensor_type;location;lat;lon;timestamp;P1;durP1;ratioP1;P2;durP2;ratioP2
56391;SDS011;42289;53.582;9.714;2022-09-23T00:01:04;6.10;;;1.58;;
56391;SDS011;42289;53.582;9.714;2022-09-23T00:03:32;4.30;;;1.38;;
56391;SDS011;42289;53.582;9.714;2022-09-23T00:06:00;5.65;;;1.52;;
56391;SDS011;42289;53.582;9.714;2022-09-23T00:08:28;4.00;;;1.70;;
56391;SDS011;42289;53.582;9.714;2022-09-23T00:10:55;5.20;;;1.85;;
56391;SDS011;42289;53.582;9.714;2022-09-23T00:13:22;4.70;;;1.60;;
56391;SDS011;42289;53.582;9.714;2022-09-23T00:15:48;7.03;;;1.85;;
56391;SDS011;42289;53.582;9.714;2022-09-23T00:18:16;6.32;;;2.28;;
56391;SDS011;42289;53.582;9.714;2022-09-23T00:20:44;6.57;;;2.10;;
56391;SDS011;42289;53.582;9.714;2022-09-23T00:23:11;4.18;;;1.48;;
56391;SDS011;42289;53.582;9.714;2022-09-23T00:25:37;5.55;;;1.73;;
56391;SDS011;42289;53.582;9.714;2022-09-23T00:28:03;5.70;;;1.60;;
56391;SDS011;42289;53.582;9.714;2022-09-23T00:30:30;5.45;;;1.95;;
56391;SDS011;42289;53.582;9.714;2022-09-23T00:32:56;7.07;;;2.10;;
56391;SDS011;42289;53.582;9.714;2022-09-23T00:35:25;5.90;;;1.90;;
56391;SDS011;42289;53.582;9.714;2022-09-23T00:37:52;5.53;;;1.67;;
56391;SDS011;42289;53.582;9.714;2022-09-23T00:40:18;5.50;;;1.90;;
56391;SDS011;42289;53.582;9.714;2022-09-23T00:42:45;7.32;;;1.83;;
56391;SDS011;42289;53.582;9.714;2022-09-23T00:45:13;5.40;;;1.65;;
56391;SDS011;42289;53.582;9.714;2022-09-23T00:47:41;4.80;;;1.75;;
56391;SDS011;42289;53.582;9.714;2022-09-23T00:50:12;3.42;;;1.50;;
56391;SDS011;42289;53.582;9.714;2022-09-23T00:52:43;4.18;;;1.65;;
56391;SDS011;42289;53.582;9.714;2022-09-23T00:55:12;9.57;;;1.80;;
56391;SDS011;42289;53.582;9.714;2022-09-23T00:57:42;4.88;;;1.27;;
56391;SDS011;42289;53.582;9.714;2022-09-23T01:00:11;3.55;;;1.50;;
56391;SDS011;42289;53.582;9.714;2022-09-23T01:02:38;4.63;;;1.85;;
56391;SDS011;42289;53.582;9.714;2022-09-23T01:05:05;5.13;;;2.17;;
56391;SDS011;42289;53.582;9.714;2022-09-23T01:07:33;4.50;;;1.50;;
56391;SDS011;42289;53.582;9.714;2022-09-23T01:10:00;4.72;;;1.55;;
56391;SDS011;42289;53.582;9.714;2022-09-23T01:12:32;3.85;;;1.50;;
56391;SDS011;42289;53.582;9.714;2022-09-23T01:15:13;3.45;;;1.50;;
56391;SDS011;42289;53.582;9.714;2022-09-23T01:17:46;4.50;;;1.60;;
56391;SDS011;42289;53.582;9.714;2022-09-23T01:20:26;3.65;;;1.70;;
56391;SDS011;42289;53.582;9.714;2022-09-23T01:23:20;3.90;;;1.77;;
56391;SDS011;42289;53.582;9.714;2022-09-23T01:26:09;4.85;;;1.38;;
56391;SDS011;42289;53.582;9.714;2022-09-23T01:28:52;3.60;;;1.60;;
56391;SDS011;42289;53.582;9.714;2022-09-23T01:31:38;4.07;;;1.52;;
56391;SDS011;42289;53.582;9.714;2022-09-23T01:34:10;2.40;;;1.20;;
56391;SDS011;42289;53.582;9.714;2022-09-23T01:36:44;4.40;;;1.33;;
56391;SDS011;42289;53.582;9.714;2022-09-23T01:39:18;4.23;;;1.60;;
56391;SDS011;42289;53.582;9.714;2022-09-23T01:41:52;3.75;;;1.80;;
56391;SDS011;42289;53.582;9.714;2022-09-23T01:44:27;2.40;;;1.20;;
56391;SDS011;42289;53.582;9.714;2022-09-23T01:47:00;3.78;;;1.40;;
56391;SDS011;42289;53.582;9.714;2022-09-23T01:49:31;3.88;;;1.35;;
56391;SDS011;42289;53.582;9.714;2022-09-23T01:52:05;5.40;;;1.50;;
56391;SDS011;42289;53.582;9.714;2022-09-23T01:54:41;3.42;;;1.50;;
56391;SDS011;42289;53.582;9.714;2022-09-23T01:57:15;4.55;;;1.40;;
56391;SDS011;42289;53.582;9.714;2022-09-23T01:59:48;3.00;;;1.27;;
56391;SDS011;42289;53.582;9.714;2022-09-23T02:02:22;2.95;;;1.42;;
56391;SDS011;42289;53.582;9.714;2022-09-23T02:04:54;4.25;;;1.52;;
56391;SDS011;42289;53.582;9.714;2022-09-23T02:07:27;5.70;;;1.58;;
56391;SDS011;42289;53.582;9.714;2022-09-23T02:10:03;4.85;;;1.48;;
56391;SDS011;42289;53.582;9.714;2022-09-23T02:12:35;5.63;;;1.90;;
56391;SDS011;42289;53.582;9.714;2022-09-23T02:15:06;4.38;;;1.40;;
56391;SDS011;42289;53.582;9.714;2022-09-23T02:17:44;4.15;;;1.50;;
56391;SDS011;42289;53.582;9.714;2022-09-23T02:20:15;4.45;;;1.70;;
56391;SDS011;42289;53.582;9.714;2022-09-23T02:22:47;5.05;;;1.50;;
56391;SDS011;42289;53.582;9.714;2022-09-23T02:25:21;6.85;;;1.42;;
56391;SDS011;42289;53.582;9.714;2022-09-23T02:27:59;4.68;;;1.52;;
56391;SDS011;42289;53.582;9.714;2022-09-23T02:30:35;4.57;;;1.52;;
56391;SDS011;42289;53.582;9.714;2022-09-23T02:33:12;3.97;;;1.42;;
56391;SDS011;42289;53.582;9.714;2022-09-23T02:35:47;4.78;;;1.42;;
56391;SDS011;42289;53.582;9.714;2022-09-23T02:38:19;3.58;;;1.50;;
56391;SDS011;42289;53.582;9.714;2022-09-23T02:40:54;4.25;;;1.50;;
56391;SDS011;42289;53.582;9.714;2022-09-23T02:43:30;4.43;;;1.55;;
56391;SDS011;42289;53.582;9.714;2022-09-23T02:46:03;3.63;;;1.40;;
56391;SDS011;42289;53.582;9.714;2022-09-23T02:48:33;4.53;;;1.60;;
56391;SDS011;42289;53.582;9.714;2022-09-23T02:53:30;4.13;;;1.45;;
56391;SDS011;42289;53.582;9.714;2022-09-23T02:55:58;3.47;;;1.50;;
56391;SDS011;42289;53.582;9.714;2022-09-23T02:58:25;3.90;;;1.50;;
56391;SDS011;42289;53.582;9.714;2022-09-23T03:00:53;4.60;;;1.70;;
56391;SDS011;42289;53.582;9.714;2022-09-23T03:03:35;3.28;;;1.48;;
56391;SDS011;42289;53.582;9.714;2022-09-23T03:06:08;5.53;;;2.17;;
56391;SDS011;42289;53.582;9.714;2022-09-23T03:08:45;4.65;;;1.40;;
56391;SDS011;42289;53.582;9.714;2022-09-23T03:11:17;4.47;;;1.80;;
56391;SDS011;42289;53.582;9.714;2022-09-23T03:13:59;3.78;;;1.30;;
56391;SDS011;42289;53.582;9.714;2022-09-23T03:16:42;3.55;;;1.80;;
56391;SDS011;42289;53.582;9.714;2022-09-23T03:19:22;3.88;;;1.48;;
56391;SDS011;42289;53.582;9.714;2022-09-23T03:21:55;4.40;;;1.90;;
56391;SDS011;42289;53.582;9.714;2022-09-23T03:24:26;6.25;;;1.90;;
56391;SDS011;42289;53.582;9.714;2022-09-23T03:26:57;4.07;;;1.73;;
56391;SDS011;42289;53.582;9.714;2022-09-23T03:29:28;6.30;;;1.95;;
56391;SDS011;42289;53.582;9.714;2022-09-23T03:31:56;3.72;;;1.75;;
56391;SDS011;42289;53.582;9.714;2022-09-23T03:34:26;3.28;;;1.63;;
56391;SDS011;42289;53.582;9.714;2022-09-23T03:36:55;4.47;;;1.63;;
56391;SDS011;42289;53.582;9.714;2022-09-23T03:39:27;4.57;;;1.90;;
56391;SDS011;42289;53.582;9.714;2022-09-23T03:42:00;4.85;;;2.00;;
56391;SDS011;42289;53.582;9.714;2022-09-23T03:44:33;5.00;;;1.70;;
56391;SDS011;42289;53.582;9.714;2022-09-23T03:47:03;5.10;;;2.00;;
56391;SDS011;42289;53.582;9.714;2022-09-23T03:49:32;5.55;;;1.80;;
56391;SDS011;42289;53.582;9.714;2022-09-23T03:52:03;2.97;;;1.50;;
56391;SDS011;42289;53.582;9.714;2022-09-23T03:54:29;3.90;;;1.73;;
56391;SDS011;42289;53.582;9.714;2022-09-23T03:56:56;3.40;;;1.70;;
56391;SDS011;42289;53.582;9.714;2022-09-23T03:59:23;4.80;;;1.73;;
56391;SDS011;42289;53.582;9.714;2022-09-23T04:01:49;5.22;;;2.08;;
56391;SDS011;42289;53.582;9.714;2022-09-23T04:04:16;5.90;;;2.15;;
56391;SDS011;42289;53.582;9.714;2022-09-23T04:06:44;3.95;;;1.63;;
56391;SDS011;42289;53.582;9.714;2022-09-23T04:09:10;3.80;;;1.70;;
56391;SDS011;42289;53.582;9.714;2022-09-23T04:11:37;3.72;;;1.73;;
56391;SDS011;42289;53.582;9.714;2022-09-23T04:14:03;4.38;;;2.22;;
56391;SDS011;42289;53.582;9.714;2022-09-23T04:16:30;3.40;;;1.65;;
56391;SDS011;42289;53.582;9.714;2022-09-23T04:18:56;3.97;;;1.65;;
56391;SDS011;42289;53.582;9.714;2022-09-23T04:21:23;5.30;;;2.17;;
56391;SDS011;42289;53.582;9.714;2022-09-23T04:23:52;3.58;;;1.80;;
56391;SDS011;42289;53.582;9.714;2022-09-23T04:26:18;4.25;;;2.38;;
56391;SDS011;42289;53.582;9.714;2022-09-23T04:28:44;4.80;;;2.00;;
56391;SDS011;42289;53.582;9.714;2022-09-23T04:31:11;4.03;;;2.00;;
56391;SDS011;42289;53.582;9.714;2022-09-23T04:33:37;4.78;;;1.80;;
56391;SDS011;42289;53.582;9.714;2022-09-23T04:36:04;3.67;;;1.77;;
56391;SDS011;42289;53.582;9.714;2022-09-23T04:38:30;7.15;;;2.08;;
56391;SDS011;42289;53.582;9.714;2022-09-23T04:40:58;3.53;;;1.90;;
56391;SDS011;42289;53.582;9.714;2022-09-23T04:43:24;4.18;;;1.70;;
56391;SDS011;42289;53.582;9.714;2022-09-23T04:45:57;7.13;;;1.85;;
56391;SDS011;42289;53.582;9.714;2022-09-23T04:48:24;3.95;;;1.98;;
56391;SDS011;42289;53.582;9.714;2022-09-23T04:50:51;6.32;;;2.00;;
56391;SDS011;42289;53.582;9.714;2022-09-23T04:53:18;4.57;;;1.80;;
56391;SDS011;42289;53.582;9.714;2022-09-23T04:55:45;5.80;;;1.80;;
56391;SDS011;42289;53.582;9.714;2022-09-23T04:58:13;3.40;;;1.55;;
56391;SDS011;42289;53.582;9.714;2022-09-23T05:00:39;3.78;;;1.75;;
56391;SDS011;42289;53.582;9.714;2022-09-23T05:03:05;5.07;;;2.03;;
56391;SDS011;42289;53.582;9.714;2022-09-23T05:05:32;4.50;;;1.92;;
56391;SDS011;42289;53.582;9.714;2022-09-23T05:07:58;3.53;;;1.83;;
56391;SDS011;42289;53.582;9.714;2022-09-23T05:10:25;4.90;;;1.70;;
56391;SDS011;42289;53.582;9.714;2022-09-23T05:12:51;4.70;;;2.08;;
56391;SDS011;42289;53.582;9.714;2022-09-23T05:15:19;3.72;;;1.70;;
56391;SDS011;42289;53.582;9.714;2022-09-23T05:17:45;5.40;;;2.20;;
56391;SDS011;42289;53.582;9.714;2022-09-23T05:20:12;7.93;;;2.13;;
56391;SDS011;42289;53.582;9.714;2022-09-23T05:22:38;4.55;;;2.03;;
56391;SDS011;42289;53.582;9.714;2022-09-23T05:25:05;4.63;;;2.10;;
56391;SDS011;42289;53.582;9.714;2022-09-23T05:27:31;3.83;;;1.85;;
56391;SDS011;42289;53.582;9.714;2022-09-23T05:29:58;4.45;;;1.95;;
56391;SDS011;42289;53.582;9.714;2022-09-23T05:32:26;4.93;;;2.60;;
56391;SDS011;42289;53.582;9.714;2022-09-23T05:34:52;3.90;;;2.30;;
56391;SDS011;42289;53.582;9.714;2022-09-23T05:37:19;7.70;;;2.60;;
56391;SDS011;42289;53.582;9.714;2022-09-23T05:39:46;6.13;;;1.90;;
56391;SDS011;42289;53.582;9.714;2022-09-23T05:42:12;4.78;;;2.30;;
56391;SDS011;42289;53.582;9.714;2022-09-23T05:44:39;4.72;;;2.22;;
56391;SDS011;42289;53.582;9.714;2022-09-23T05:47:05;5.57;;;2.10;;
56391;SDS011;42289;53.582;9.714;2022-09-23T05:49:33;4.72;;;2.30;;
56391;SDS011;42289;53.582;9.714;2022-09-23T05:52:00;4.72;;;2.25;;
56391;SDS011;42289;53.582;9.714;2022-09-23T05:54:27;5.30;;;2.45;;
56391;SDS011;42289;53.582;9.714;2022-09-23T05:56:53;4.80;;;2.30;;
56391;SDS011;42289;53.582;9.714;2022-09-23T05:59:20;5.30;;;2.20;;
56391;SDS011;42289;53.582;9.714;2022-09-23T06:01:46;5.78;;;2.20;;
56391;SDS011;42289;53.582;9.714;2022-09-23T06:04:12;4.05;;;2.15;;
56391;SDS011;42289;53.582;9.714;2022-09-23T06:06:41;6.63;;;2.28;;
56391;SDS011;42289;53.582;9.714;2022-09-23T06:09:09;4.35;;;2.22;;
56391;SDS011;42289;53.582;9.714;2022-09-23T06:11:37;4.50;;;2.20;;
56391;SDS011;42289;53.582;9.714;2022-09-23T06:14:04;4.70;;;1.83;;
56391;SDS011;42289;53.582;9.714;2022-09-23T06:16:32;4.18;;;2.03;;
56391;SDS011;42289;53.582;9.714;2022-09-23T06:19:00;6.68;;;2.10;;
56391;SDS011;42289;53.582;9.714;2022-09-23T06:21:29;5.35;;;2.20;;
56391;SDS011;42289;53.582;9.714;2022-09-23T06:23:58;5.40;;;2.40;;
56391;SDS011;42289;53.582;9.714;2022-09-23T06:26:25;5.78;;;2.75;;
56391;SDS011;42289;53.582;9.714;2022-09-23T06:28:58;6.35;;;2.50;;
56391;SDS011;42289;53.582;9.714;2022-09-23T06:31:25;4.57;;;2.22;;
56391;SDS011;42289;53.582;9.714;2022-09-23T06:33:51;5.82;;;2.40;;
56391;SDS011;42289;53.582;9.714;2022-09-23T06:36:18;6.05;;;2.22;;
56391;SDS011;42289;53.582;9.714;2022-09-23T06:38:44;5.43;;;2.40;;
56391;SDS011;42289;53.582;9.714;2022-09-23T06:41:14;5.60;;;2.58;;
56391;SDS011;42289;53.582;9.714;2022-09-23T06:43:41;4.72;;;2.20;;
56391;SDS011;42289;53.582;9.714;2022-09-23T06:46:07;4.82;;;2.35;;
56391;SDS011;42289;53.582;9.714;2022-09-23T06:48:38;4.78;;;2.28;;
56391;SDS011;42289;53.582;9.714;2022-09-23T06:51:05;4.97;;;2.08;;
56391;SDS011;42289;53.582;9.714;2022-09-23T06:53:32;5.93;;;2.35;;
56391;SDS011;42289;53.582;9.714;2022-09-23T06:55:59;4.95;;;2.35;;
56391;SDS011;42289;53.582;9.714;2022-09-23T06:58:28;5.45;;;2.38;;
56391;SDS011;42289;53.582;9.714;2022-09-23T07:00:59;5.25;;;2.40;;
56391;SDS011;42289;53.582;9.714;2022-09-23T07:05:43;4.07;;;1.92;;
56391;SDS011;42289;53.582;9.714;2022-09-23T07:08:10;8.02;;;2.30;;
56391;SDS011;42289;53.582;9.714;2022-09-23T07:10:36;4.90;;;2.50;;
56391;SDS011;42289;53.582;9.714;2022-09-23T07:13:03;4.35;;;2.28;;
56391;SDS011;42289;53.582;9.714;2022-09-23T07:15:30;3.67;;;1.98;;
56391;SDS011;42289;53.582;9.714;2022-09-23T07:17:57;7.95;;;2.25;;
56391;SDS011;42289;53.582;9.714;2022-09-23T07:20:24;4.28;;;2.10;;
56391;SDS011;42289;53.582;9.714;2022-09-23T07:22:51;4.55;;;2.40;;
56391;SDS011;42289;53.582;9.714;2022-09-23T07:25:18;4.10;;;2.05;;
56391;SDS011;42289;53.582;9.714;2022-09-23T07:27:45;4.53;;;2.00;;
56391;SDS011;42289;53.582;9.714;2022-09-23T07:30:12;6.53;;;2.20;;
56391;SDS011;42289;53.582;9.714;2022-09-23T07:32:42;4.45;;;2.00;;
56391;SDS011;42289;53.582;9.714;2022-09-23T07:35:08;5.50;;;2.30;;
56391;SDS011;42289;53.582;9.714;2022-09-23T07:37:35;4.95;;;2.15;;
56391;SDS011;42289;53.582;9.714;2022-09-23T07:40:03;5.28;;;2.35;;
56391;SDS011;42289;53.582;9.714;2022-09-23T07:42:31;4.40;;;2.03;;
56391;SDS011;42289;53.582;9.714;2022-09-23T07:44:57;5.35;;;2.58;;
56391;SDS011;42289;53.582;9.714;2022-09-23T07:47:24;5.38;;;2.20;;
56391;SDS011;42289;53.582;9.714;2022-09-23T07:49:53;3.75;;;1.85;;
56391;SDS011;42289;53.582;9.714;2022-09-23T07:52:22;4.63;;;2.35;;
56391;SDS011;42289;53.582;9.714;2022-09-23T07:54:55;5.20;;;2.40;;
56391;SDS011;42289;53.582;9.714;2022-09-23T07:57:22;4.82;;;2.30;;
56391;SDS011;42289;53.582;9.714;2022-09-23T07:59:51;4.82;;;2.50;;
56391;SDS011;42289;53.582;9.714;2022-09-23T08:02:17;3.90;;;2.30;;
56391;SDS011;42289;53.582;9.714;2022-09-23T08:04:44;4.68;;;2.50;;
56391;SDS011;42289;53.582;9.714;2022-09-23T08:07:11;3.90;;;2.20;;
56391;SDS011;42289;53.582;9.714;2022-09-23T08:09:38;4.85;;;2.50;;
56391;SDS011;42289;53.582;9.714;2022-09-23T08:12:06;4.65;;;2.50;;
56391;SDS011;42289;53.582;9.714;2022-09-23T08:14:34;5.57;;;2.08;;
56391;SDS011;42289;53.582;9.714;2022-09-23T08:17:00;4.30;;;2.15;;
56391;SDS011;42289;53.582;9.714;2022-09-23T08:19:27;6.25;;;2.13;;
56391;SDS011;42289;53.582;9.714;2022-09-23T08:21:53;3.60;;;2.30;;
56391;SDS011;42289;53.582;9.714;2022-09-23T08:24:21;4.65;;;2.53;;
56391;SDS011;42289;53.582;9.714;2022-09-23T08:26:50;5.22;;;2.45;;
56391;SDS011;42289;53.582;9.714;2022-09-23T08:29:18;5.22;;;2.30;;
56391;SDS011;42289;53.582;9.714;2022-09-23T08:31:47;5.25;;;2.20;;
56391;SDS011;42289;53.582;9.714;2022-09-23T08:34:15;3.75;;;1.90;;
56391;SDS011;42289;53.582;9.714;2022-09-23T08:36:42;5.20;;;2.00;;
56391;SDS011;42289;53.582;9.714;2022-09-23T08:39:11;6.90;;;2.15;;
56391;SDS011;42289;53.582;9.714;2022-09-23T08:41:41;4.93;;;1.88;;
56391;SDS011;42289;53.582;9.714;2022-09-23T08:44:12;3.50;;;1.80;;
56391;SDS011;42289;53.582;9.714;2022-09-23T08:46:43;5.53;;;3.22;;
56391;SDS011;42289;53.582;9.714;2022-09-23T08:49:15;6.72;;;2.50;;
56391;SDS011;42289;53.582;9.714;2022-09-23T08:51:47;4.10;;;2.30;;
56391;SDS011;42289;53.582;9.714;2022-09-23T08:54:15;3.58;;;1.80;;
56391;SDS011;42289;53.582;9.714;2022-09-23T08:56:43;4.97;;;1.85;;
56391;SDS011;42289;53.582;9.714;2022-09-23T08:59:13;6.18;;;2.10;;
56391;SDS011;42289;53.582;9.714;2022-09-23T09:01:46;7.63;;;2.25;;
56391;SDS011;42289;53.582;9.714;2022-09-23T09:04:19;4.78;;;1.90;;
56391;SDS011;42289;53.582;9.714;2022-09-23T09:06:49;5.25;;;1.90;;
56391;SDS011;42289;53.582;9.714;2022-09-23T09:09:21;4.32;;;2.00;;
56391;SDS011;42289;53.582;9.714;2022-09-23T09:11:51;5.55;;;2.38;;
56391;SDS011;42289;53.582;9.714;2022-09-23T09:14:26;4.00;;;1.85;;
56391;SDS011;42289;53.582;9.714;2022-09-23T09:16:57;3.47;;;1.60;;
56391;SDS011;42289;53.582;9.714;2022-09-23T09:22:29;4.18;;;2.00;;
56391;SDS011;42289;53.582;9.714;2022-09-23T09:25:11;5.88;;;2.17;;
56391;SDS011;42289;53.582;9.714;2022-09-23T09:27:47;3.70;;;1.80;;
56391;SDS011;42289;53.582;9.714;2022-09-23T09:30:14;4.80;;;1.95;;
56391;SDS011;42289;53.582;9.714;2022-09-23T09:32:43;5.03;;;2.05;;
56391;SDS011;42289;53.582;9.714;2022-09-23T09:35:17;4.75;;;2.03;;
56391;SDS011;42289;53.582;9.714;2022-09-23T09:37:49;3.72;;;2.00;;
56391;SDS011;42289;53.582;9.714;2022-09-23T09:40:16;3.72;;;1.70;;
56391;SDS011;42289;53.582;9.714;2022-09-23T09:42:45;5.00;;;1.80;;
56391;SDS011;42289;53.582;9.714;2022-09-23T09:45:14;6.35;;;1.83;;
56391;SDS011;42289;53.582;9.714;2022-09-23T09:47:50;5.00;;;1.90;;
56391;SDS011;42289;53.582;9.714;2022-09-23T09:50:42;4.05;;;1.70;;
56391;SDS011;42289;53.582;9.714;2022-09-23T09:53:15;4.85;;;1.80;;
56391;SDS011;42289;53.582;9.714;2022-09-23T09:55:55;4.38;;;1.88;;
56391;SDS011;42289;53.582;9.714;2022-09-23T09:58:27;3.95;;;1.40;;
56391;SDS011;42289;53.582;9.714;2022-09-23T10:00:57;3.97;;;1.70;;
56391;SDS011;42289;53.582;9.714;2022-09-23T10:03:29;4.75;;;1.80;;
56391;SDS011;42289;53.582;9.714;2022-09-23T10:06:02;3.80;;;1.55;;
56391;SDS011;42289;53.582;9.714;2022-09-23T10:08:46;5.60;;;1.80;;
56391;SDS011;42289;53.582;9.714;2022-09-23T10:11:27;3.60;;;1.70;;
56391;SDS011;42289;53.582;9.714;2022-09-23T10:13:59;5.40;;;1.90;;
56391;SDS011;42289;53.582;9.714;2022-09-23T10:16:30;4.20;;;1.65;;
56391;SDS011;42289;53.582;9.714;2022-09-23T10:18:58;4.00;;;1.48;;
56391;SDS011;42289;53.582;9.714;2022-09-23T10:21:31;3.42;;;1.55;;
56391;SDS011;42289;53.582;9.714;2022-09-23T10:24:01;3.88;;;1.63;;
56391;SDS011;42289;53.582;9.714;2022-09-23T10:26:31;2.72;;;1.40;;
56391;SDS011;42289;53.582;9.714;2022-09-23T10:29:00;3.03;;;1.40;;
56391;SDS011;42289;53.582;9.714;2022-09-23T10:31:29;4.43;;;2.03;;
56391;SDS011;42289;53.582;9.714;2022-09-23T10:33:58;4.88;;;1.85;;
56391;SDS011;42289;53.582;9.714;2022-09-23T10:36:25;4.30;;;1.70;;
56391;SDS011;42289;53.582;9.714;2022-09-23T10:38:56;2.92;;;1.40;;
56391;SDS011;42289;53.582;9.714;2022-09-23T10:41:45;2.92;;;1.52;;
56391;SDS011;42289;53.582;9.714;2022-09-23T10:44:38;3.92;;;1.60;;
56391;SDS011;42289;53.582;9.714;2022-09-23T10:47:30;3.15;;;1.42;;
56391;SDS011;42289;53.582;9.714;2022-09-23T10:50:06;3.50;;;1.30;;
56391;SDS011;42289;53.582;9.714;2022-09-23T10:52:48;3.28;;;1.60;;
56391;SDS011;42289;53.582;9.714;2022-09-23T10:55:28;4.68;;;1.25;;
56391;SDS011;42289;53.582;9.714;2022-09-23T10:58:10;3.50;;;1.50;;
56391;SDS011;42289;53.582;9.714;2022-09-23T11:00:51;3.95;;;1.50;;
56391;SDS011;42289;53.582;9.714;2022-09-23T11:06:40;3.80;;;1.45;;
56391;SDS011;42289;53.582;9.714;2022-09-23T11:09:25;4.93;;;1.70;;
56391;SDS011;42289;53.582;9.714;2022-09-23T11:12:02;3.08;;;1.50;;
56391;SDS011;42289;53.582;9.714;2022-09-23T11:14:42;2.60;;;1.40;;
56391;SDS011;42289;53.582;9.714;2022-09-23T11:17:26;3.10;;;1.30;;
56391;SDS011;42289;53.582;9.714;2022-09-23T11:20:08;3.35;;;1.30;;
56391;SDS011;42289;53.582;9.714;2022-09-23T11:23:19;3.60;;;1.42;;
56391;SDS011;42289;53.582;9.714;2022-09-23T11:25:58;3.88;;;1.55;;
56391;SDS011;42289;53.582;9.714;2022-09-23T11:28:40;2.50;;;1.25;;
56391;SDS011;42289;53.582;9.714;2022-09-23T11:31:21;3.92;;;1.40;;
56391;SDS011;42289;53.582;9.714;2022-09-23T11:34:01;3.88;;;1.70;;
56391;SDS011;42289;53.582;9.714;2022-09-23T11:36:38;4.93;;;1.30;;
56391;SDS011;42289;53.582;9.714;2022-09-23T11:39:11;4.47;;;1.40;;
56391;SDS011;42289;53.582;9.714;2022-09-23T11:41:42;2.77;;;1.20;;
56391;SDS011;42289;53.582;9.714;2022-09-23T11:44:13;4.30;;;1.40;;
56391;SDS011;42289;53.582;9.714;2022-09-23T11:46:45;5.07;;;1.25;;
56391;SDS011;42289;53.582;9.714;2022-09-23T11:49:18;2.88;;;1.08;;
56391;SDS011;42289;53.582;9.714;2022-09-23T11:51:55;2.90;;;1.05;;
56391;SDS011;42289;53.582;9.714;2022-09-23T11:54:28;4.65;;;1.20;;
56391;SDS011;42289;53.582;9.714;2022-09-23T11:57:02;5.10;;;1.60;;
56391;SDS011;42289;53.582;9.714;2022-09-23T11:59:37;3.23;;;1.10;;
56391;SDS011;42289;53.582;9.714;2022-09-23T12:02:13;2.67;;;1.30;;
56391;SDS011;42289;53.582;9.714;2022-09-23T12:04:45;4.18;;;1.20;;
56391;SDS011;42289;53.582;9.714;2022-09-23T12:07:16;3.30;;;1.05;;
56391;SDS011;42289;53.582;9.714;2022-09-23T12:09:49;3.80;;;1.20;;
56391;SDS011;42289;53.582;9.714;2022-09-23T12:12:25;3.50;;;1.27;;
56391;SDS011;42289;53.582;9.714;2022-09-23T12:15:00;4.05;;;1.30;;
56391;SDS011;42289;53.582;9.714;2022-09-23T12:17:43;2.78;;;1.10;;
56391;SDS011;42289;53.582;9.714;2022-09-23T12:20:27;3.03;;;1.30;;
56391;SDS011;42289;53.582;9.714;2022-09-23T12:23:11;3.47;;;1.30;;
56391;SDS011;42289;53.582;9.714;2022-09-23T12:25:49;3.05;;;1.25;;
56391;SDS011;42289;53.582;9.714;2022-09-23T12:28:19;2.92;;;1.27;;
56391;SDS011;42289;53.582;9.714;2022-09-23T12:30:50;3.85;;;1.10;;
56391;SDS011;42289;53.582;9.714;2022-09-23T12:33:21;2.22;;;1.10;;
56391;SDS011;42289;53.582;9.714;2022-09-23T12:35:51;3.92;;;1.17;;
56391;SDS011;42289;53.582;9.714;2022-09-23T12:38:20;3.53;;;1.13;;
56391;SDS011;42289;53.582;9.714;2022-09-23T12:40:50;2.72;;;1.05;;
56391;SDS011;42289;53.582;9.714;2022-09-23T12:43:19;2.35;;;1.10;;
56391;SDS011;42289;53.582;9.714;2022-09-23T12:45:55;3.47;;;1.17;;
56391;SDS011;42289;53.582;9.714;2022-09-23T12:48:43;2.95;;;1.13;;
56391;SDS011;42289;53.582;9.714;2022-09-23T12:51:15;3.35;;;1.15;;
56391;SDS011;42289;53.582;9.714;2022-09-23T12:59:26;2.83;;;1.15;;
56391;SDS011;42289;53.582;9.714;2022-09-23T13:01:56;2.53;;;1.10;;
56391;SDS011;42289;53.582;9.714;2022-09-23T13:04:41;2.40;;;1.13;;
56391;SDS011;42289;53.582;9.714;2022-09-23T13:07:27;3.83;;;1.00;;
56391;SDS011;42289;53.582;9.714;2022-09-23T13:10:03;4.75;;;1.30;;
56391;SDS011;42289;53.582;9.714;2022-09-23T13:12:33;3.53;;;1.48;;
56391;SDS011;42289;53.582;9.714;2022-09-23T13:15:03;4.82;;;1.45;;
56391;SDS011;42289;53.582;9.714;2022-09-23T13:17:41;3.95;;;1.30;;
56391;SDS011;42289;53.582;9.714;2022-09-23T13:23:04;3.13;;;1.30;;
56391;SDS011;42289;53.582;9.714;2022-09-23T13:25:44;5.68;;;1.15;;
56391;SDS011;42289;53.582;9.714;2022-09-23T13:28:12;2.35;;;1.20;;
56391;SDS011;42289;53.582;9.714;2022-09-23T13:30:50;2.50;;;1.17;;
56391;SDS011;42289;53.582;9.714;2022-09-23T13:33:19;3.47;;;1.25;;
56391;SDS011;42289;53.582;9.714;2022-09-23T13:35:53;5.18;;;1.30;;
56391;SDS011;42289;53.582;9.714;2022-09-23T13:38:25;3.08;;;1.13;;
56391;SDS011;42289;53.582;9.714;2022-09-23T13:40:54;2.47;;;1.10;;
56391;SDS011;42289;53.582;9.714;2022-09-23T13:43:24;2.60;;;1.10;;
56391;SDS011;42289;53.582;9.714;2022-09-23T13:45:55;2.50;;;1.17;;
56391;SDS011;42289;53.582;9.714;2022-09-23T13:48:24;2.50;;;1.20;;
56391;SDS011;42289;53.582;9.714;2022-09-23T13:50:52;2.47;;;1.15;;
56391;SDS011;42289;53.582;9.714;2022-09-23T13:53:20;3.40;;;1.20;;
56391;SDS011;42289;53.582;9.714;2022-09-23T13:56:00;7.18;;;1.83;;
56391;SDS011;42289;53.582;9.714;2022-09-23T13:58:30;5.40;;;2.97;;
56391;SDS011;42289;53.582;9.714;2022-09-23T14:00:57;3.13;;;1.13;;
56391;SDS011;42289;53.582;9.714;2022-09-23T14:03:25;4.03;;;1.20;;
56391;SDS011;42289;53.582;9.714;2022-09-23T14:05:54;2.75;;;0.98;;
56391;SDS011;42289;53.582;9.714;2022-09-23T14:08:21;3.10;;;1.20;;
56391;SDS011;42289;53.582;9.714;2022-09-23T14:10:48;2.85;;;1.20;;
56391;SDS011;42289;53.582;9.714;2022-09-23T14:13:15;2.88;;;1.30;;
56391;SDS011;42289;53.582;9.714;2022-09-23T14:15:45;2.83;;;1.20;;
56391;SDS011;42289;53.582;9.714;2022-09-23T14:18:14;2.63;;;1.30;;
56391;SDS011;42289;53.582;9.714;2022-09-23T14:20:52;2.17;;;1.20;;
56391;SDS011;42289;53.582;9.714;2022-09-23T14:23:18;4.22;;;1.10;;
56391;SDS011;42289;53.582;9.714;2022-09-23T14:25:45;4.00;;;1.90;;
56391;SDS011;42289;53.582;9.714;2022-09-23T14:28:15;3.58;;;1.30;;
56391;SDS011;42289;53.582;9.714;2022-09-23T14:30:45;3.20;;;1.42;;
56391;SDS011;42289;53.582;9.714;2022-09-23T14:33:14;3.72;;;1.45;;
56391;SDS011;42289;53.582;9.714;2022-09-23T14:35:43;2.85;;;1.02;;
56391;SDS011;42289;53.582;9.714;2022-09-23T14:38:18;4.55;;;1.17;;
56391;SDS011;42289;53.582;9.714;2022-09-23T14:41:15;3.33;;;1.40;;
56391;SDS011;42289;53.582;9.714;2022-09-23T14:43:50;3.47;;;1.38;;
56391;SDS011;42289;53.582;9.714;2022-09-23T14:46:20;2.70;;;1.10;;
56391;SDS011;42289;53.582;9.714;2022-09-23T14:48:54;3.85;;;1.10;;
56391;SDS011;42289;53.582;9.714;2022-09-23T14:51:28;3.58;;;1.40;;
56391;SDS011;42289;53.582;9.714;2022-09-23T14:56:54;3.33;;;1.40;;
56391;SDS011;42289;53.582;9.714;2022-09-23T14:59:23;4.47;;;1.70;;
56391;SDS011;42289;53.582;9.714;2022-09-23T15:01:52;8.45;;;4.38;;
56391;SDS011;42289;53.582;9.714;2022-09-23T15:04:26;3.78;;;1.75;;
56391;SDS011;42289;53.582;9.714;2022-09-23T15:06:55;6.82;;;2.00;;
56391;SDS011;42289;53.582;9.714;2022-09-23T15:09:28;2.97;;;1.30;;
56391;SDS011;42289;53.582;9.714;2022-09-23T15:11:56;2.80;;;1.30;;
56391;SDS011;42289;53.582;9.714;2022-09-23T15:14:28;3.20;;;1.33;;
56391;SDS011;42289;53.582;9.714;2022-09-23T15:17:00;3.58;;;1.33;;
56391;SDS011;42289;53.582;9.714;2022-09-23T15:19:30;4.60;;;1.50;;
56391;SDS011;42289;53.582;9.714;2022-09-23T15:21:58;4.13;;;1.38;;
56391;SDS011;42289;53.582;9.714;2022-09-23T15:24:34;3.88;;;1.52;;
56391;SDS011;42289;53.582;9.714;2022-09-23T15:27:08;3.05;;;1.50;;
56391;SDS011;42289;53.582;9.714;2022-09-23T15:29:36;7.05;;;2.05;;
56391;SDS011;42289;53.582;9.714;2022-09-23T15:32:03;4.30;;;1.63;;
56391;SDS011;42289;53.582;9.714;2022-09-23T15:34:32;3.15;;;1.42;;